createdAt,value
2022-08-20T00:03:41.358Z,100.00
2022-08-20T00:07:46.388Z,100.00
2022-08-20T00:11:47.887Z,100.00
2022-08-20T00:15:49.690Z,100.00
2022-08-20T00:19:51.260Z,100.00
2022-08-20T00:23:54.027Z,100.00
2022-08-20T00:27:57.162Z,100.00
2022-08-20T00:31:59.532Z,100.00
2022-08-20T00:36:06.575Z,100.00
2022-08-20T00:40:22.918Z,100.00
2022-08-20T00:44:24.930Z,100.00
2022-08-20T00:48:31.938Z,100.00
2022-08-20T00:52:33.729Z,100.00
2022-08-20T00:56:36.651Z,100.00
2022-08-20T01:00:42.714Z,100.00
2022-08-20T01:04:50.103Z,100.00
2022-08-20T01:08:52.252Z,100.00
2022-08-20T01:12:59.452Z,100.00
2022-08-20T01:17:06.238Z,100.00
2022-08-20T01:21:08.497Z,100.00
2022-08-20T01:25:16.578Z,100.00
2022-08-20T01:29:22.577Z,100.00
2022-08-20T01:33:24.970Z,100.00
2022-08-20T01:37:31.369Z,100.00
2022-08-20T01:41:52.368Z,100.00
2022-08-20T01:45:54.274Z,100.00
2022-08-20T01:49:59.900Z,100.00
2022-08-20T01:54:01.620Z,100.00
2022-08-20T01:58:03.303Z,100.00
2022-08-20T02:02:05.388Z,100.00
2022-08-20T02:06:06.926Z,100.00
2022-08-20T02:10:10.844Z,100.00
2022-08-20T02:14:12.317Z,100.00
2022-08-20T02:18:15.460Z,100.00
2022-08-20T02:22:35.628Z,100.00
2022-08-20T02:26:39.757Z,100.00
2022-08-20T02:30:45.347Z,100.00
2022-08-20T02:34:46.806Z,100.00
2022-08-20T02:38:48.431Z,100.00
2022-08-20T02:42:49.923Z,100.00
2022-08-20T02:46:51.541Z,100.00
2022-08-20T02:50:56.749Z,100.00
2022-08-20T02:54:58.216Z,100.00
2022-08-20T02:58:59.995Z,100.00
2022-08-20T03:03:01.959Z,100.00
2022-08-20T03:07:05.926Z,100.00
2022-08-20T03:11:07.966Z,100.00
2022-08-20T03:15:17.489Z,100.00
2022-08-20T03:19:19.667Z,100.00
2022-08-20T03:23:21.541Z,100.00
2022-08-20T03:27:24.091Z,100.00
2022-08-20T03:31:29.671Z,100.00
2022-08-20T03:35:32.312Z,100.00
2022-08-20T03:39:34.166Z,100.00
2022-08-20T03:43:37.351Z,100.00
2022-08-20T03:47:41.367Z,100.00
2022-08-20T03:51:57.626Z,100.00
2022-08-20T03:56:04.448Z,100.00
2022-08-20T04:00:06.847Z,100.00
2022-08-20T04:04:14.472Z,100.00
2022-08-20T04:08:20.552Z,100.00
2022-08-20T04:12:24.200Z,100.00
2022-08-20T04:16:27.481Z,100.00
2022-08-20T04:20:29.043Z,100.00
2022-08-20T04:24:32.151Z,100.00
2022-08-20T04:28:34.302Z,100.00
2022-08-20T04:32:36.811Z,100.00
2022-08-20T04:36:40.685Z,100.00
2022-08-20T04:40:54.308Z,100.00
2022-08-20T04:44:55.748Z,100.00
2022-08-20T04:48:58.725Z,100.00
2022-08-20T04:53:00.252Z,100.00
2022-08-20T04:57:02.184Z,100.00
2022-08-20T05:01:10.331Z,100.00
2022-08-20T05:05:13.319Z,100.00
2022-08-20T05:09:14.788Z,100.00
2022-08-20T05:13:16.565Z,100.00
2022-08-20T05:17:18.121Z,100.00
2022-08-20T05:21:20.861Z,100.00
2022-08-20T05:25:23.169Z,100.00
2022-08-20T05:29:25.358Z,100.00
2022-08-20T05:33:29.938Z,100.00
2022-08-20T05:37:31.439Z,100.00
2022-08-20T05:41:34.438Z,100.00
2022-08-20T05:45:38.340Z,100.00
2022-08-20T05:49:40.359Z,100.00
2022-08-20T05:53:41.885Z,100.00
2022-08-20T05:57:45.649Z,100.00
2022-08-20T06:01:47.116Z,100.00
2022-08-20T06:05:48.939Z,100.00
2022-08-20T06:09:50.502Z,100.00
2022-08-20T06:13:51.964Z,100.00
2022-08-20T06:17:58.236Z,100.00
2022-08-20T06:22:00.864Z,100.00
2022-08-20T06:26:02.533Z,100.00
2022-08-20T06:30:04.575Z,100.00
2022-08-20T06:34:07.385Z,100.00
2022-08-20T06:38:11.205Z,100.00
2022-08-20T06:42:13.601Z,100.00
2022-08-20T06:46:25.252Z,100.00
2022-08-20T06:50:31.244Z,100.00
2022-08-20T06:54:34.287Z,100.00
2022-08-20T06:58:38.831Z,100.00
2022-08-20T07:02:41.428Z,100.00
2022-08-20T07:06:43.785Z,100.00
2022-08-20T07:10:49.796Z,100.00
2022-08-20T07:14:51.287Z,100.00
2022-08-20T07:18:52.778Z,100.00
2022-08-20T07:22:54.318Z,100.00
2022-08-20T07:26:56.994Z,100.00
2022-08-20T07:31:17.739Z,100.00
2022-08-20T07:35:21.975Z,100.00
2022-08-20T07:39:23.435Z,100.00
2022-08-20T07:43:26.049Z,100.00
2022-08-20T07:47:27.588Z,100.00
2022-08-20T07:51:29.459Z,100.00
2022-08-20T07:58:06.424Z,100.00
2022-08-20T08:02:07.887Z,100.00
2022-08-20T08:06:09.639Z,100.00
2022-08-20T08:10:19.508Z,100.00
2022-08-20T08:14:26.644Z,100.00
2022-08-20T08:18:34.032Z,100.00
2022-08-20T08:22:36.045Z,100.00
2022-08-20T08:26:37.619Z,100.00
2022-08-20T08:30:40.315Z,100.00
2022-08-20T08:34:41.804Z,100.00
2022-08-20T08:38:45.267Z,100.00
2022-08-20T08:42:58.148Z,100.00
2022-08-20T08:47:18.681Z,100.00
2022-08-20T08:51:27.990Z,100.00
2022-08-20T08:55:31.009Z,100.00
2022-08-20T08:59:58.301Z,100.00
2022-08-20T09:03:55.987Z,100.00
2022-08-20T09:07:58.867Z,100.00
2022-08-20T09:12:07.822Z,100.00
2022-08-20T09:16:10.304Z,100.00
2022-08-20T09:20:11.888Z,100.00
2022-08-20T09:24:13.378Z,100.00
2022-08-20T09:28:14.859Z,100.00
2022-08-20T09:32:19.474Z,100.00
2022-08-20T09:36:32.598Z,100.00
2022-08-20T09:40:34.786Z,100.00
2022-08-20T09:44:36.343Z,100.00
2022-08-20T09:48:37.848Z,100.00
2022-08-20T09:52:45.534Z,100.00
2022-08-20T09:56:47.120Z,100.00
2022-08-20T10:00:48.907Z,100.00
2022-08-20T10:04:50.705Z,100.00
2022-08-20T10:08:52.886Z,100.00
2022-08-20T10:12:55.042Z,100.00
2022-08-20T10:17:00.681Z,100.00
2022-08-20T10:21:02.575Z,100.00
2022-08-20T10:25:05.647Z,100.00
2022-08-20T10:29:07.135Z,100.00
2022-08-20T10:33:08.620Z,100.00
2022-08-20T10:37:18.542Z,100.00
2022-08-20T10:41:20.187Z,100.00
2022-08-20T10:45:21.652Z,100.00
2022-08-20T10:49:23.140Z,100.00
2022-08-20T10:53:24.603Z,100.00
2022-08-20T10:57:28.987Z,100.00
2022-08-20T11:01:33.858Z,100.00
2022-08-20T11:05:36.674Z,100.00
2022-08-20T11:09:38.690Z,100.00
2022-08-20T11:13:40.149Z,100.00
2022-08-20T11:17:43.190Z,100.00
2022-08-20T11:21:44.649Z,100.00
2022-08-20T11:25:46.526Z,99.89
2022-08-20T11:29:48.017Z,100.00
2022-08-20T11:33:49.603Z,100.00
2022-08-20T11:37:52.201Z,99.50
2022-08-20T11:41:55.269Z,100.00
2022-08-20T11:45:57.645Z,100.00
2022-08-20T11:50:06.576Z,100.00
2022-08-20T11:54:08.090Z,99.67
2022-08-20T11:58:10.238Z,100.00
2022-08-20T12:02:12.649Z,100.00
2022-08-20T12:06:14.598Z,100.00
2022-08-20T12:10:16.148Z,99.44
2022-08-20T12:14:17.594Z,99.29
2022-08-20T12:18:19.111Z,100.00
2022-08-20T12:22:24.669Z,94.19
2022-08-20T12:26:26.923Z,100.00
2022-08-20T12:30:28.509Z,95.44
2022-08-20T12:34:29.980Z,93.56
2022-08-20T12:38:31.584Z,90.42
2022-08-20T12:42:33.053Z,94.78
2022-08-20T12:46:34.615Z,91.90
2022-08-20T12:50:38.284Z,93.29
2022-08-20T12:54:39.966Z,89.53
2022-08-20T12:58:41.427Z,93.58
2022-08-20T13:02:43.125Z,94.76
2022-08-20T13:06:44.715Z,93.14
2022-08-20T13:10:47.490Z,94.61
2022-08-20T13:14:49.027Z,98.41
2022-08-20T13:18:50.557Z,96.44
2022-08-20T13:22:53.191Z,97.42
2022-08-20T13:26:54.701Z,99.40
2022-08-20T13:30:56.187Z,99.84
2022-08-20T13:34:57.645Z,97.53
2022-08-20T13:38:59.125Z,94.02
2022-08-20T13:43:06.002Z,89.95
2022-08-20T13:47:14.990Z,86.26
2022-08-20T13:51:18.157Z,88.20
2022-08-20T13:55:23.148Z,90.34
2022-08-20T13:59:24.975Z,91.40
2022-08-20T14:03:26.493Z,90.21
2022-08-20T14:07:32.536Z,91.26
2022-08-20T14:11:34.412Z,89.94
2022-08-20T14:15:36.855Z,88.44
2022-08-20T14:19:38.401Z,89.45
2022-08-20T14:23:40.030Z,91.23
2022-08-20T14:27:41.998Z,88.97
2022-08-20T14:31:43.501Z,91.06
2022-08-20T14:35:45.108Z,89.74
2022-08-20T14:39:49.552Z,88.04
2022-08-20T14:43:51.163Z,88.10
2022-08-20T14:47:57.105Z,83.82
2022-08-20T14:51:58.556Z,85.97
2022-08-20T14:56:00.629Z,82.77
2022-08-20T15:00:02.188Z,83.31
2022-08-20T15:04:03.874Z,82.72
2022-08-20T15:08:06.241Z,84.50
2022-08-20T15:12:08.334Z,85.45
2022-08-20T15:16:09.876Z,88.29
2022-08-20T15:20:20.496Z,85.87
2022-08-20T15:24:22.493Z,89.09
2022-08-20T15:28:23.940Z,89.71
2022-08-20T15:32:25.383Z,89.37
2022-08-20T15:36:26.902Z,91.09
2022-08-20T15:40:30.823Z,91.54
2022-08-20T15:44:33.525Z,91.35
2022-08-20T15:48:40.584Z,91.00
2022-08-20T15:52:44.525Z,92.36
2022-08-20T15:57:07.833Z,88.73
2022-08-20T16:01:24.691Z,89.58
2022-08-20T16:05:48.161Z,84.18
2022-08-20T16:10:03.442Z,88.28
2022-08-20T16:14:20.972Z,88.49
2022-08-20T16:18:27.819Z,87.81
2022-08-20T16:22:30.889Z,88.14
2022-08-20T16:26:46.872Z,87.35
2022-08-20T16:30:53.560Z,84.93
2022-08-20T16:35:01.780Z,86.94
2022-08-20T16:39:11.733Z,89.16
2022-08-20T16:43:21.476Z,88.19
2022-08-20T16:47:35.613Z,87.84
2022-08-20T16:51:46.108Z,84.88
2022-08-20T16:55:50.172Z,90.10
2022-08-20T17:00:06.471Z,84.16
2022-08-20T17:04:20.282Z,77.87
2022-08-20T17:08:29.763Z,81.12
2022-08-20T17:12:35.447Z,72.75
2022-08-20T17:16:50.401Z,71.75
2022-08-20T17:20:52.811Z,74.06
2022-08-20T17:24:55.860Z,77.29
2022-08-20T17:29:00.630Z,79.69
2022-08-20T17:33:06.379Z,85.33
2022-08-20T17:37:18.183Z,86.76
2022-08-20T17:41:26.226Z,85.83
2022-08-20T17:45:37.339Z,86.82
2022-08-20T17:50:11.998Z,83.99
2022-08-20T17:54:46.533Z,86.88
2022-08-20T17:59:03.140Z,86.71
2022-08-20T18:03:26.401Z,86.51
2022-08-20T18:07:39.627Z,84.15
2022-08-20T18:12:07.957Z,82.04
2022-08-20T18:16:49.116Z,82.71
2022-08-20T18:21:15.352Z,82.67
2022-08-20T18:25:40.924Z,82.61
2022-08-20T18:29:46.584Z,82.97
2022-08-20T18:33:48.215Z,83.17
2022-08-20T18:37:49.819Z,84.89
2022-08-20T18:42:01.958Z,83.38
2022-08-20T18:46:13.318Z,85.45
2022-08-20T18:50:22.834Z,85.26
2022-08-20T18:54:29.519Z,87.91
2022-08-20T18:58:51.877Z,89.17
2022-08-20T19:03:12.456Z,86.88
2022-08-20T19:07:15.936Z,87.74
2022-08-20T19:11:47.881Z,86.20
2022-08-20T19:15:51.902Z,87.11
2022-08-20T19:20:07.390Z,88.11
2022-08-20T19:24:11.439Z,88.67
2022-08-20T19:28:29.873Z,87.87
2022-08-20T19:32:32.809Z,88.62
2022-08-20T19:36:36.483Z,90.82
2022-08-20T19:40:40.150Z,90.33
2022-08-20T19:45:14.871Z,91.89
2022-08-20T19:49:26.624Z,92.25
2022-08-20T19:53:31.143Z,93.87
2022-08-20T19:57:32.703Z,94.41
2022-08-20T20:01:35.923Z,95.99
2022-08-20T20:05:50.790Z,98.37
2022-08-20T20:09:56.864Z,100.00
2022-08-20T20:14:11.840Z,100.00
2022-08-20T20:18:13.707Z,100.00
2022-08-20T20:22:22.568Z,100.00
2022-08-20T20:26:29.425Z,100.00
2022-08-20T20:30:34.757Z,100.00
2022-08-20T20:34:54.831Z,100.00
2022-08-20T20:39:04.159Z,100.00
2022-08-20T20:43:10.352Z,100.00
2022-08-20T20:47:22.731Z,99.27
2022-08-20T20:51:28.789Z,99.13
2022-08-20T20:55:35.361Z,96.58
2022-08-20T20:59:37.304Z,97.12
2022-08-20T21:03:38.747Z,95.18
2022-08-20T21:07:53.527Z,94.47
2022-08-20T21:11:55.014Z,92.61
2022-08-20T21:15:56.527Z,91.04
2022-08-20T21:20:00.840Z,91.92
2022-08-20T21:24:02.549Z,92.66
2022-08-20T21:28:04.543Z,93.37
2022-08-20T21:32:06.244Z,93.83
2022-08-20T21:36:07.768Z,94.03
2022-08-20T21:40:10.379Z,93.95
2022-08-20T21:44:27.186Z,95.74
2022-08-20T21:48:31.284Z,93.72
2022-08-20T21:52:32.755Z,95.70
2022-08-20T21:56:37.957Z,95.08
2022-08-20T22:00:53.911Z,93.46
2022-08-20T22:04:55.431Z,95.42
2022-08-20T22:08:57.192Z,98.51
2022-08-20T22:12:58.756Z,100.00
2022-08-20T22:17:00.233Z,99.09
2022-08-20T22:21:02.282Z,100.00
2022-08-20T22:25:04.069Z,100.00
2022-08-20T22:29:10.476Z,100.00
2022-08-20T22:33:16.097Z,100.00
2022-08-20T22:37:17.839Z,100.00
2022-08-20T22:41:20.017Z,100.00
2022-08-20T22:45:21.488Z,100.00
2022-08-20T22:49:27.642Z,100.00
2022-08-20T22:53:29.300Z,100.00
2022-08-20T22:57:30.821Z,99.71
2022-08-20T23:01:36.194Z,98.72
2022-08-20T23:05:38.635Z,100.00
2022-08-20T23:09:41.867Z,99.37
2022-08-20T23:13:43.380Z,99.96
2022-08-20T23:17:45.371Z,100.00
2022-08-20T23:21:48.400Z,100.00
2022-08-20T23:25:50.132Z,100.00
2022-08-20T23:29:51.612Z,100.00
2022-08-20T23:33:53.056Z,100.00
2022-08-20T23:37:57.180Z,100.00
2022-08-20T23:41:59.279Z,100.00
2022-08-20T23:46:04.119Z,100.00
2022-08-20T23:50:07.812Z,100.00
2022-08-20T23:54:09.326Z,100.00
2022-08-20T23:58:10.790Z,100.00
